Sturgeon Falls, Canada
Current Conditions -  °F | °C
As of 3:00 AM on Friday 28 Nov 2014 (Local Time) from CYYB Reporting Station
Light Snow Light Snow  
Wind Chill: -18°   Ceiling: 6000
Heat Index: -12°   Visibility: 7mi
Dew Point: -13°   Wind: 7mph
Humidity: 92%   Direction: 360°N
Pressure: 30.09"   Gusts: NA
Location:  46.37°N, 79.93°W
Report Text: CYYB 280800Z AUTO 36006KT 7SM -SN SCT040 OVC060 M12/M13 A3009 RMK SLP216
Loading
Personal Weather Stations






























Interactive Weather Map New forecast layout! Learn more

10-Day Weather Forecast

Advertisements
Track Severe Weather on mobile